createdAt,value
2019-05-09T00:01:39.468Z,8.74
2019-05-09T00:04:13.953Z,8.72
2019-05-09T00:06:46.950Z,8.68
2019-05-09T00:09:20.151Z,8.68
2019-05-09T00:11:53.163Z,8.73
2019-05-09T00:14:25.994Z,8.79
2019-05-09T00:16:58.968Z,8.79
2019-05-09T00:19:33.353Z,8.85
2019-05-09T00:22:06.510Z,8.85
2019-05-09T00:24:39.364Z,8.90
2019-05-09T00:27:14.138Z,8.86
2019-05-09T00:29:47.259Z,8.83
2019-05-09T00:32:20.636Z,8.83
2019-05-09T00:34:53.832Z,8.76
2019-05-09T00:37:26.736Z,8.72
2019-05-09T00:39:59.678Z,8.72
2019-05-09T00:42:33.360Z,8.64
2019-05-09T00:45:06.478Z,8.54
2019-05-09T00:47:39.696Z,8.55
2019-05-09T00:50:13.242Z,8.46
2019-05-09T00:52:46.142Z,8.43
2019-05-09T00:55:19.002Z,8.43
2019-05-09T00:57:53.437Z,8.39
2019-05-09T01:00:26.545Z,8.32
2019-05-09T01:02:59.786Z,8.19
2019-05-09T01:05:35.476Z,8.19
2019-05-09T01:08:08.485Z,8.32
2019-05-09T01:10:43.577Z,8.26
2019-05-09T01:13:16.148Z,8.26
2019-05-09T01:15:49.317Z,8.25
2019-05-09T01:18:23.731Z,8.26
2019-05-09T01:20:56.961Z,8.21
2019-05-09T01:23:29.941Z,8.25
2019-05-09T01:26:03.861Z,8.25
2019-05-09T01:28:37.370Z,8.34
2019-05-09T01:31:10.310Z,8.38
2019-05-09T01:33:44.000Z,8.30
2019-05-09T01:36:16.944Z,8.45
2019-05-09T01:38:49.938Z,8.38
2019-05-09T01:41:30.315Z,8.28
2019-05-09T01:43:57.952Z,8.19
2019-05-09T01:46:30.823Z,8.22
2019-05-09T01:49:04.093Z,8.19
2019-05-09T01:51:36.965Z,8.19
2019-05-09T01:54:09.885Z,8.24
2019-05-09T01:56:43.203Z,8.28
2019-05-09T01:59:16.193Z,8.21
2019-05-09T02:01:49.058Z,8.15
2019-05-09T02:04:24.190Z,8.16
2019-05-09T02:06:56.990Z,8.27
2019-05-09T02:09:29.934Z,8.36
2019-05-09T02:12:03.911Z,8.36
2019-05-09T02:14:37.243Z,8.35
2019-05-09T02:17:10.109Z,8.37
2019-05-09T02:19:43.915Z,8.44
2019-05-09T02:22:17.266Z,8.45
2019-05-09T02:24:50.212Z,8.46
2019-05-09T02:27:23.825Z,8.39
2019-05-09T02:29:56.814Z,8.34
2019-05-09T02:32:30.243Z,8.27
2019-05-09T02:35:04.886Z,8.28
2019-05-09T02:37:38.865Z,8.26
2019-05-09T02:40:12.456Z,8.26
2019-05-09T02:42:48.721Z,8.19
2019-05-09T02:45:20.421Z,8.05
2019-05-09T02:47:53.366Z,8.05
2019-05-09T02:50:28.511Z,8.15
2019-05-09T02:53:00.929Z,8.15
2019-05-09T02:55:34.253Z,8.10
2019-05-09T02:58:08.251Z,8.03
2019-05-09T03:00:41.424Z,8.03
2019-05-09T03:03:14.289Z,8.00
2019-05-09T03:05:48.756Z,8.00
2019-05-09T03:08:21.925Z,8.04
2019-05-09T03:10:54.895Z,8.03
2019-05-09T03:13:29.098Z,8.06
2019-05-09T03:16:02.292Z,8.14
2019-05-09T03:18:35.154Z,8.16
2019-05-09T03:21:09.188Z,8.18
2019-05-09T03:23:42.306Z,8.19
2019-05-09T03:26:15.277Z,8.16
2019-05-09T03:28:49.271Z,8.22
2019-05-09T03:31:22.677Z,8.20
2019-05-09T03:33:59.152Z,8.23
2019-05-09T03:36:30.267Z,8.23
2019-05-09T03:39:04.985Z,8.22
2019-05-09T03:41:39.494Z,8.20
2019-05-09T03:44:12.685Z,8.19
2019-05-09T03:46:47.666Z,8.17
2019-05-09T03:49:20.221Z,8.25
2019-05-09T03:51:53.146Z,8.24
2019-05-09T03:54:28.308Z,8.22
2019-05-09T03:57:00.884Z,8.24
2019-05-09T03:59:33.745Z,8.23
2019-05-09T04:02:09.837Z,8.15
2019-05-09T04:04:42.009Z,8.08
2019-05-09T04:07:14.926Z,8.05
2019-05-09T04:09:48.044Z,8.05
2019-05-09T04:12:21.277Z,8.05
2019-05-09T04:14:54.410Z,8.09
2019-05-09T04:17:28.087Z,8.10
2019-05-09T04:20:00.986Z,8.14
2019-05-09T04:22:33.896Z,8.18
2019-05-09T04:25:07.990Z,8.17
2019-05-09T04:27:41.029Z,8.24
2019-05-09T04:30:13.969Z,8.24
2019-05-09T04:32:48.160Z,8.28
2019-05-09T04:35:21.432Z,8.25
2019-05-09T04:37:54.356Z,8.27
2019-05-09T04:40:31.786Z,8.34
2019-05-09T04:43:11.951Z,8.38
2019-05-09T04:45:38.793Z,8.44
2019-05-09T04:48:13.192Z,8.44
2019-05-09T04:50:47.824Z,8.42
2019-05-09T04:53:21.260Z,8.41
2019-05-09T04:55:54.172Z,8.40
2019-05-09T04:58:27.447Z,8.36
2019-05-09T05:01:00.617Z,8.26
2019-05-09T05:03:33.599Z,8.14
2019-05-09T05:06:07.682Z,8.12
2019-05-09T05:08:40.562Z,8.16
2019-05-09T05:11:13.419Z,8.26
2019-05-09T05:13:48.147Z,8.26
2019-05-09T05:16:21.390Z,8.25
2019-05-09T05:18:54.290Z,8.25
2019-05-09T05:21:28.628Z,8.39
2019-05-09T05:24:01.656Z,8.39
2019-05-09T05:26:34.686Z,8.41
2019-05-09T05:29:08.526Z,8.36
2019-05-09T05:31:41.628Z,8.27
2019-05-09T05:34:14.773Z,8.27
2019-05-09T05:36:47.776Z,8.22
2019-05-09T05:39:20.717Z,8.22
2019-05-09T05:41:53.982Z,8.18
2019-05-09T05:44:28.278Z,8.18
2019-05-09T05:47:01.485Z,8.23
2019-05-09T05:49:34.779Z,8.34
2019-05-09T05:52:08.203Z,8.34
2019-05-09T05:54:41.975Z,8.32
2019-05-09T05:57:17.547Z,8.35
2019-05-09T05:59:49.806Z,8.32
2019-05-09T06:02:23.118Z,8.30
2019-05-09T06:04:57.859Z,8.38
2019-05-09T06:07:31.025Z,8.45
2019-05-09T06:10:04.629Z,8.55
2019-05-09T06:12:38.204Z,8.72
2019-05-09T06:15:12.051Z,8.95
2019-05-09T06:17:45.111Z,9.40
2019-05-09T06:20:18.267Z,9.40
2019-05-09T06:22:51.164Z,9.66
2019-05-09T06:25:24.559Z,9.67
2019-05-09T06:27:58.383Z,9.67
2019-05-09T06:30:31.967Z,9.63
2019-05-09T06:33:05.426Z,9.63
2019-05-09T06:35:38.473Z,9.43
2019-05-09T06:38:11.512Z,9.43
2019-05-09T06:40:44.786Z,9.33
2019-05-09T06:43:18.371Z,9.33
2019-05-09T06:45:51.483Z,9.33
2019-05-09T06:48:24.391Z,9.45
2019-05-09T06:50:57.744Z,10.06
2019-05-09T06:53:30.706Z,10.06
2019-05-09T06:56:03.988Z,10.37
2019-05-09T06:58:38.363Z,10.55
2019-05-09T07:01:11.786Z,10.76
2019-05-09T07:03:44.851Z,10.99
2019-05-09T07:06:17.905Z,11.09
2019-05-09T07:08:50.938Z,11.21
2019-05-09T07:11:23.906Z,11.21
2019-05-09T07:13:57.882Z,11.52
2019-05-09T07:16:31.026Z,11.77
2019-05-09T07:19:04.007Z,11.71
2019-05-09T07:21:37.558Z,11.63
2019-05-09T07:24:10.600Z,11.63
2019-05-09T07:26:43.546Z,11.43
2019-05-09T07:29:17.874Z,11.43
2019-05-09T07:31:51.158Z,11.39
2019-05-09T07:34:24.197Z,11.51
2019-05-09T07:36:58.170Z,11.67
2019-05-09T07:39:31.706Z,11.67
2019-05-09T07:42:04.706Z,11.95
2019-05-09T07:44:46.263Z,11.72
2019-05-09T07:47:12.607Z,11.92
2019-05-09T07:49:48.079Z,12.31
2019-05-09T07:52:20.552Z,12.15
2019-05-09T07:54:53.423Z,12.38
2019-05-09T07:57:28.551Z,12.31
2019-05-09T08:00:01.323Z,12.31
2019-05-09T08:02:34.304Z,12.34
2019-05-09T08:05:08.581Z,12.39
2019-05-09T08:07:41.700Z,13.36
2019-05-09T08:10:14.809Z,16.01
2019-05-09T08:12:48.329Z,16.01
2019-05-09T08:15:21.451Z,18.09
2019-05-09T08:17:54.354Z,18.09
2019-05-09T08:20:27.906Z,17.71
2019-05-09T08:23:02.442Z,16.66
2019-05-09T08:25:38.061Z,17.57
2019-05-09T08:28:10.490Z,20.14
2019-05-09T08:30:43.821Z,20.75
2019-05-09T08:33:18.376Z,20.86
2019-05-09T08:35:52.687Z,19.30
2019-05-09T08:38:27.973Z,20.24
2019-05-09T08:41:00.599Z,19.93
2019-05-09T08:43:34.631Z,19.93
2019-05-09T08:46:08.842Z,19.38
2019-05-09T08:48:41.872Z,21.56
2019-05-09T08:51:14.894Z,20.26
2019-05-09T08:53:48.319Z,20.62
2019-05-09T08:56:21.416Z,17.96
2019-05-09T08:58:57.937Z,16.39
2019-05-09T09:01:47.627Z,16.72
2019-05-09T09:04:04.053Z,15.45
2019-05-09T09:06:38.034Z,15.68
2019-05-09T09:09:10.990Z,16.28
2019-05-09T09:11:44.453Z,15.79
2019-05-09T09:14:18.471Z,17.13
2019-05-09T09:16:51.755Z,17.57
2019-05-09T09:19:24.895Z,17.50
2019-05-09T09:22:00.538Z,16.98
2019-05-09T09:24:32.434Z,18.81
2019-05-09T09:27:07.515Z,20.98
2019-05-09T09:29:40.099Z,21.91
2019-05-09T09:32:13.084Z,20.51
2019-05-09T09:34:48.476Z,20.51
2019-05-09T09:37:22.030Z,21.23
2019-05-09T09:39:54.987Z,23.01
2019-05-09T09:42:28.402Z,24.04
2019-05-09T09:45:02.311Z,23.15
2019-05-09T09:47:38.860Z,25.41
2019-05-09T09:50:10.512Z,24.75
2019-05-09T09:52:43.523Z,24.07
2019-05-09T09:55:18.490Z,25.36
2019-05-09T09:57:51.762Z,21.08
2019-05-09T10:00:38.227Z,21.08
2019-05-09T10:03:11.469Z,21.77
2019-05-09T10:05:44.553Z,20.79
2019-05-09T10:08:18.346Z,20.99
2019-05-09T10:10:51.866Z,21.36
2019-05-09T10:13:24.795Z,20.03
2019-05-09T10:15:58.847Z,22.39
2019-05-09T10:18:31.866Z,22.12
2019-05-09T10:21:04.982Z,24.71
2019-05-09T10:23:38.027Z,23.53
2019-05-09T10:26:11.072Z,21.84
2019-05-09T10:28:45.482Z,20.92
2019-05-09T10:31:19.072Z,21.72
2019-05-09T10:33:51.959Z,18.47
2019-05-09T10:36:24.880Z,18.47
2019-05-09T10:38:58.573Z,17.32
2019-05-09T10:41:31.566Z,20.43
2019-05-09T10:44:04.518Z,20.43
2019-05-09T10:46:51.422Z,21.51
2019-05-09T10:49:12.228Z,21.97
2019-05-09T10:51:45.167Z,20.74
2019-05-09T10:54:18.653Z,20.86
2019-05-09T10:56:51.968Z,22.49
2019-05-09T10:59:24.980Z,22.41
2019-05-09T11:01:58.271Z,21.49
2019-05-09T11:04:31.200Z,22.17
2019-05-09T11:07:04.226Z,24.44
2019-05-09T11:09:39.076Z,24.29
2019-05-09T11:12:12.224Z,23.94
2019-05-09T11:14:45.094Z,22.82
2019-05-09T11:17:21.599Z,22.81
2019-05-09T11:19:53.099Z,22.00
2019-05-09T11:22:28.907Z,22.73
2019-05-09T11:25:00.971Z,20.87
2019-05-09T11:27:33.856Z,20.53
2019-05-09T11:30:08.391Z,21.51
2019-05-09T11:32:41.408Z,22.80
2019-05-09T11:35:14.377Z,21.01
2019-05-09T11:37:48.066Z,20.75
2019-05-09T11:40:21.031Z,19.37
2019-05-09T11:42:53.907Z,20.07
2019-05-09T11:48:00.660Z,19.15
2019-05-09T11:50:33.557Z,21.36
2019-05-09T11:53:08.829Z,20.83
2019-05-09T11:55:43.326Z,22.29
2019-05-09T11:58:18.047Z,22.44
2019-05-09T12:00:50.392Z,22.00
2019-05-09T12:03:23.604Z,20.20
2019-05-09T12:05:58.298Z,18.27
2019-05-09T12:08:31.011Z,18.07
2019-05-09T12:11:03.907Z,17.35
2019-05-09T12:13:38.047Z,17.21
2019-05-09T12:16:10.913Z,17.46
2019-05-09T12:18:43.882Z,17.46
2019-05-09T12:21:19.136Z,17.84
2019-05-09T12:23:51.449Z,17.96
2019-05-09T12:26:24.267Z,17.75
2019-05-09T12:28:57.989Z,17.17
2019-05-09T12:31:30.998Z,17.17
2019-05-09T12:34:03.977Z,17.63
2019-05-09T12:36:39.864Z,21.06
2019-05-09T12:39:11.685Z,21.06
2019-05-09T12:41:44.530Z,21.91
2019-05-09T12:44:18.291Z,21.91
2019-05-09T12:46:52.005Z,22.60
2019-05-09T12:49:25.147Z,23.53
2019-05-09T12:51:58.799Z,23.53
2019-05-09T12:54:31.881Z,21.52
2019-05-09T12:57:04.707Z,19.60
2019-05-09T12:59:46.422Z,18.18
2019-05-09T13:02:12.163Z,18.18
2019-05-09T13:04:47.498Z,18.59
2019-05-09T13:07:20.053Z,19.09
2019-05-09T13:09:53.059Z,18.46
2019-05-09T13:12:28.932Z,18.21
2019-05-09T13:15:00.541Z,17.81
2019-05-09T13:17:33.366Z,17.46
2019-05-09T13:20:07.954Z,17.46
2019-05-09T13:22:40.979Z,16.94
2019-05-09T13:25:14.050Z,16.91
2019-05-09T13:27:47.890Z,17.05
2019-05-09T13:30:21.145Z,17.14
2019-05-09T13:32:53.967Z,17.27
2019-05-09T13:35:27.784Z,17.15
2019-05-09T13:38:00.784Z,17.55
2019-05-09T13:40:33.741Z,17.52
2019-05-09T13:43:08.970Z,17.86
2019-05-09T13:45:41.238Z,18.78
2019-05-09T13:48:28.131Z,18.78
2019-05-09T13:50:48.680Z,19.56
2019-05-09T13:53:21.521Z,19.56
2019-05-09T13:55:55.623Z,18.87
2019-05-09T13:58:28.937Z,17.94
2019-05-09T14:01:02.663Z,17.94
2019-05-09T14:03:35.699Z,17.20
2019-05-09T14:06:09.144Z,16.88
2019-05-09T14:08:42.070Z,16.42
2019-05-09T14:11:14.984Z,16.42
2019-05-09T14:13:48.801Z,15.72
2019-05-09T14:16:22.540Z,15.72
2019-05-09T14:18:58.854Z,15.92
2019-05-09T14:21:30.238Z,15.92
2019-05-09T14:24:14.058Z,16.19
2019-05-09T14:26:37.797Z,16.62
2019-05-09T14:29:12.955Z,16.86
2019-05-09T14:31:45.309Z,17.02
2019-05-09T14:34:19.675Z,17.02
2019-05-09T14:36:52.793Z,17.28
2019-05-09T14:39:27.683Z,17.16
2019-05-09T14:42:00.325Z,16.79
2019-05-09T14:44:33.151Z,15.44
2019-05-09T14:47:08.093Z,14.38
2019-05-09T14:49:44.501Z,14.38
2019-05-09T14:52:15.247Z,14.22
2019-05-09T14:54:48.393Z,13.68
2019-05-09T14:57:21.408Z,13.39
2019-05-09T14:59:54.242Z,13.39
2019-05-09T15:02:27.124Z,13.05
2019-05-09T15:05:00.027Z,12.34
2019-05-09T15:07:33.040Z,12.34
2019-05-09T15:10:08.641Z,12.29
2019-05-09T15:12:41.021Z,12.32
2019-05-09T15:15:14.099Z,12.27
2019-05-09T15:17:49.294Z,12.27
2019-05-09T15:20:21.683Z,12.40
2019-05-09T15:22:54.566Z,12.46
2019-05-09T15:25:28.306Z,12.46
2019-05-09T15:28:01.264Z,12.59
2019-05-09T15:30:34.106Z,12.67
2019-05-09T15:33:08.373Z,12.76
2019-05-09T15:35:41.423Z,12.94
2019-05-09T15:38:14.582Z,13.11
2019-05-09T15:40:48.266Z,13.47
2019-05-09T15:43:21.298Z,13.47
2019-05-09T15:45:54.137Z,13.88
2019-05-09T15:48:27.571Z,14.16
2019-05-09T15:51:00.613Z,14.38
2019-05-09T15:53:33.505Z,14.47
2019-05-09T15:56:08.028Z,14.73
2019-05-09T15:58:40.979Z,14.98
2019-05-09T16:01:14.163Z,15.33
2019-05-09T16:03:48.527Z,15.72
2019-05-09T16:06:21.906Z,15.85
2019-05-09T16:08:54.856Z,15.71
2019-05-09T16:11:28.586Z,15.50
2019-05-09T16:14:03.176Z,15.49
2019-05-09T16:16:38.553Z,15.41
2019-05-09T16:19:11.493Z,15.32
2019-05-09T16:21:44.362Z,15.06
2019-05-09T16:24:18.732Z,15.06
2019-05-09T16:26:51.870Z,14.92
2019-05-09T16:29:25.108Z,14.95
2019-05-09T16:31:58.279Z,15.17
2019-05-09T16:34:31.183Z,15.11
2019-05-09T16:37:04.275Z,14.96
2019-05-09T16:39:37.969Z,14.78
2019-05-09T16:42:11.103Z,14.78
2019-05-09T16:44:44.059Z,14.59
2019-05-09T16:47:21.603Z,14.42
2019-05-09T16:49:51.520Z,14.35
2019-05-09T16:52:24.438Z,14.32
2019-05-09T16:54:58.502Z,14.33
2019-05-09T16:57:31.618Z,14.08
2019-05-09T17:00:07.917Z,14.06
2019-05-09T17:02:40.320Z,14.06
2019-05-09T17:05:13.511Z,14.17
2019-05-09T17:07:47.646Z,14.17
2019-05-09T17:10:21.338Z,14.17
2019-05-09T17:12:54.265Z,14.07
2019-05-09T17:15:29.187Z,13.70
2019-05-09T17:18:01.989Z,13.70
2019-05-09T17:20:35.006Z,13.41
2019-05-09T17:23:13.765Z,13.38
2019-05-09T17:25:42.590Z,13.29
2019-05-09T17:28:17.666Z,13.28
2019-05-09T17:30:50.206Z,13.42
2019-05-09T17:33:23.197Z,13.42
2019-05-09T17:35:57.753Z,13.47
2019-05-09T17:38:30.903Z,13.77
2019-05-09T17:41:04.374Z,14.21
2019-05-09T17:43:38.371Z,14.47
2019-05-09T17:46:11.496Z,14.50
2019-05-09T17:48:44.566Z,14.31
2019-05-09T17:51:32.343Z,14.35
2019-05-09T17:53:52.674Z,14.10
2019-05-09T17:56:25.690Z,14.15
2019-05-09T17:58:58.647Z,13.94
2019-05-09T18:01:31.743Z,13.89
2019-05-09T18:04:04.922Z,13.68
2019-05-09T18:06:38.169Z,13.57
2019-05-09T18:09:11.289Z,13.57
2019-05-09T18:11:44.282Z,13.47
2019-05-09T18:14:18.470Z,13.47
2019-05-09T18:16:51.930Z,13.29
2019-05-09T18:19:24.929Z,13.29
2019-05-09T18:21:58.047Z,13.30
2019-05-09T18:24:31.385Z,13.39
2019-05-09T18:27:04.796Z,13.46
2019-05-09T18:29:38.154Z,13.52
2019-05-09T18:32:11.305Z,13.46
2019-05-09T18:34:44.268Z,13.46
2019-05-09T18:37:17.407Z,13.50
2019-05-09T18:39:50.360Z,13.53
2019-05-09T18:42:23.318Z,13.47
2019-05-09T18:44:56.601Z,13.47
2019-05-09T18:47:29.934Z,13.46
2019-05-09T18:50:02.959Z,13.35
2019-05-09T18:52:35.992Z,13.27
2019-05-09T18:55:09.729Z,13.29
2019-05-09T18:57:42.707Z,13.14
2019-05-09T19:00:17.202Z,13.14
2019-05-09T19:02:50.565Z,13.11
2019-05-09T19:05:23.514Z,13.05
2019-05-09T19:07:56.892Z,12.86
2019-05-09T19:10:29.736Z,12.72
2019-05-09T19:13:02.725Z,12.53
2019-05-09T19:15:35.780Z,12.53
2019-05-09T19:18:08.825Z,12.34
2019-05-09T19:20:41.900Z,12.34
2019-05-09T19:23:14.852Z,12.16
2019-05-09T19:25:47.726Z,11.87
2019-05-09T19:28:23.974Z,11.79
2019-05-09T19:30:55.628Z,11.79
2019-05-09T19:33:29.291Z,11.73
2019-05-09T19:36:02.253Z,11.65
2019-05-09T19:38:35.185Z,11.61
2019-05-09T19:41:08.413Z,11.57
2019-05-09T19:43:41.354Z,11.48
2019-05-09T19:46:14.941Z,11.43
2019-05-09T19:48:47.934Z,11.19
2019-05-09T19:51:20.920Z,11.19
2019-05-09T19:53:54.546Z,11.03
2019-05-09T19:56:27.604Z,10.86
2019-05-09T19:59:00.527Z,10.60
2019-05-09T20:01:33.483Z,10.50
2019-05-09T20:04:06.651Z,10.50
2019-05-09T20:06:39.864Z,10.28
2019-05-09T20:09:12.849Z,10.28
2019-05-09T20:11:45.741Z,10.15
2019-05-09T20:14:18.889Z,10.03
2019-05-09T20:16:53.896Z,9.93
2019-05-09T20:19:26.844Z,9.83
2019-05-09T20:22:00.168Z,9.63
2019-05-09T20:24:33.271Z,9.63
2019-05-09T20:27:06.229Z,9.54
2019-05-09T20:29:39.345Z,9.46
2019-05-09T20:32:12.366Z,9.38
2019-05-09T20:34:45.302Z,9.38
2019-05-09T20:37:18.410Z,9.28
2019-05-09T20:39:51.385Z,9.27
2019-05-09T20:42:24.441Z,9.27
2019-05-09T20:44:57.432Z,9.22
2019-05-09T20:47:30.359Z,9.22
2019-05-09T20:50:03.697Z,9.23
2019-05-09T20:52:36.762Z,9.27
2019-05-09T20:55:10.244Z,9.32
2019-05-09T20:57:43.249Z,9.39
2019-05-09T21:00:17.848Z,9.39
2019-05-09T21:02:50.764Z,9.38
2019-05-09T21:05:23.968Z,9.29
2019-05-09T21:07:56.855Z,9.29
2019-05-09T21:10:29.805Z,9.27
2019-05-09T21:13:02.873Z,9.28
2019-05-09T21:15:35.952Z,9.37
2019-05-09T21:18:08.997Z,9.42
2019-05-09T21:20:42.437Z,9.48
2019-05-09T21:23:24.382Z,9.48
2019-05-09T21:25:50.027Z,9.53
2019-05-09T21:28:23.091Z,9.57
2019-05-09T21:30:56.094Z,9.40
2019-05-09T21:33:29.098Z,9.40
2019-05-09T21:36:02.132Z,9.49
2019-05-09T21:38:35.072Z,9.62
2019-05-09T21:41:08.082Z,9.62
2019-05-09T21:43:41.075Z,9.75
2019-05-09T21:46:14.110Z,9.84
2019-05-09T21:48:47.019Z,9.94
2019-05-09T21:51:19.958Z,10.01
2019-05-09T21:53:52.858Z,10.05
2019-05-09T21:56:26.373Z,10.10
2019-05-09T21:58:59.395Z,10.10
2019-05-09T22:01:32.479Z,10.12
2019-05-09T22:04:05.605Z,10.12
2019-05-09T22:06:38.692Z,10.09
2019-05-09T22:09:11.751Z,10.12
2019-05-09T22:11:44.873Z,10.03
2019-05-09T22:14:17.865Z,10.03
2019-05-09T22:16:52.461Z,9.97
2019-05-09T22:19:25.375Z,9.97
2019-05-09T22:21:58.335Z,9.97
2019-05-09T22:24:31.308Z,9.96
2019-05-09T22:27:04.585Z,9.92
2019-05-09T22:29:37.636Z,9.89
2019-05-09T22:32:10.655Z,9.89
2019-05-09T22:34:43.575Z,9.91
2019-05-09T22:37:16.497Z,9.94
2019-05-09T22:39:49.795Z,10.00
2019-05-09T22:42:23.117Z,10.04
2019-05-09T22:44:56.140Z,10.04
2019-05-09T22:47:29.112Z,10.09
2019-05-09T22:50:02.556Z,10.14
2019-05-09T22:52:35.579Z,10.21
2019-05-09T22:55:08.848Z,10.21
2019-05-09T22:57:42.148Z,10.23
2019-05-09T23:00:15.493Z,10.24
2019-05-09T23:02:48.482Z,10.26
2019-05-09T23:05:21.495Z,10.27
2019-05-09T23:07:54.581Z,10.29
2019-05-09T23:10:27.558Z,10.28
2019-05-09T23:13:00.786Z,10.28
2019-05-09T23:15:33.727Z,10.32
2019-05-09T23:18:07.108Z,10.31
2019-05-09T23:20:40.144Z,10.33
2019-05-09T23:23:13.174Z,10.34
2019-05-09T23:25:46.092Z,10.34
2019-05-09T23:28:19.195Z,10.33
2019-05-09T23:30:52.620Z,10.33
2019-05-09T23:33:25.690Z,10.31
2019-05-09T23:35:58.827Z,10.29
2019-05-09T23:38:31.898Z,10.25
2019-05-09T23:41:04.790Z,10.19
2019-05-09T23:43:37.680Z,10.17
2019-05-09T23:46:10.881Z,10.16
2019-05-09T23:48:43.834Z,10.15
2019-05-09T23:51:17.509Z,10.15
2019-05-09T23:53:50.617Z,10.07
2019-05-09T23:56:23.583Z,10.09
2019-05-09T23:58:56.588Z,10.09
